Pinconning, MI (48650)

7:02 PM EDT on July 24, 2016 (GMT -0400)
Pinconning farm country, (Pintucky Hawg Farm) | | Change Station

Elev 623 ft 43.82 °N, 84.03 °W | Updated 12 minutes ago

Scattered Clouds
Scattered Clouds
82.8 °F
Feels Like 92 °F
N
5.8
Wind Variable Wind from SW

Today
High -- | Low -- °F
--% Chance of Precip.
Yesterday
High -- | Low -- °F
Precip. -- in
Pressure 29.85 in
Visibility 10.0 miles
Clouds Scattered Clouds 3700 ft
Scattered Clouds 4300 ft
Scattered Clouds 8000 ft
Heat Index 92 °F
Dew Point 78 °F
Humidity 84%
Rainfall 0.69 in
Snow Depth Not available.
6:16 AM 9:07 PM
Waning Gibbous, 72% visible
METAR KIKW 242254Z AUTO 18007KT 10SM SCT037 SCT043 SCT080 28/23 A2985 RMK AO2 T02810226
Pressure 29.85 in
Visibility 10.0 miles
Clouds Scattered Clouds 3700 ft
Scattered Clouds 4300 ft
Scattered Clouds 8000 ft
Heat Index 92 °F
Dew Point 78 °F
Humidity 84%
Rainfall 0.69 in
Snow Depth Not available.
6:16 AM 9:07 PM
Waning Gibbous, 72% visible
METAR KIKW 242254Z AUTO 18007KT 10SM SCT037 SCT043 SCT080 28/23 A2985 RMK AO2 T02810226

10-Day Weather Forecast

Almanac

Astronomy

Jul. 24, 2016 Rise Set
Actual Time
Civil Twilight
Nautical Twilight
Astronomical Twilight
Moon
Length of Visible Light
Length of Day
Tomorrow will be .
, % of the Moon is Illuminated

Today's Extremes

State Highs State Lows

Community

WunderPhotos

Upload Photos

1,927,204 photos uploaded!

WunderBlog® & News

Nearby

Air Quality

  Air Quality AQ Index Pollutant
Not available.

Snow Depth

Station Depth Elevation

Earthquake Activity

City Distance Mag. Time & Date
Minimum magnitude displayed is 2.5.

Coastal Water Temperatures

Place Temperature

Stations

Nearby Weather Stations

Station Location Temp. Windchill Dew Point Humidity Wind Precip. Elev Updated Type
                   

Watches & Warnings

There are currently no watches in effect.